createdAt,value
2016-08-14T00:00:39.011Z,65.47
2016-08-14T00:01:39.026Z,65.24
2016-08-14T00:02:39.056Z,65.91
2016-08-14T00:03:39.095Z,65.85
2016-08-14T00:04:39.107Z,65.72
2016-08-14T00:05:39.135Z,66.49
2016-08-14T00:06:39.177Z,66.11
2016-08-14T00:07:39.187Z,65.91
2016-08-14T00:08:39.219Z,66.69
2016-08-14T00:09:39.271Z,66.3
2016-08-14T00:10:39.271Z,66.69
2016-08-14T00:11:39.293Z,66.39
2016-08-14T00:12:39.325Z,66.69
2016-08-14T00:13:39.353Z,66.69
2016-08-14T00:14:39.376Z,66.88
2016-08-14T00:15:39.402Z,66.88
2016-08-14T00:16:39.431Z,66.97
2016-08-14T00:17:39.458Z,67.26
2016-08-14T00:18:40.197Z,67.26
2016-08-14T00:19:39.513Z,66.69
2016-08-14T00:20:39.543Z,67.07
2016-08-14T00:21:39.566Z,67.26
2016-08-14T00:22:39.593Z,66.88
2016-08-14T00:23:39.620Z,67.07
2016-08-14T00:24:39.648Z,67.26
2016-08-14T00:25:39.675Z,67.16
2016-08-14T00:26:39.703Z,67.07
2016-08-14T00:27:39.736Z,67.46
2016-08-14T00:28:39.761Z,67.65
2016-08-14T00:29:39.785Z,67.36
2016-08-14T00:30:39.811Z,67.36
2016-08-14T00:31:39.836Z,67.42
2016-08-14T00:32:39.865Z,67.46
2016-08-14T00:33:39.901Z,67.42
2016-08-14T00:34:39.923Z,67.46
2016-08-14T00:35:40.658Z,67.65
2016-08-14T00:36:39.973Z,67.46
2016-08-14T00:37:40.735Z,67.65
2016-08-14T00:38:40.023Z,67.65
2016-08-14T00:39:40.767Z,67.81
2016-08-14T00:40:40.075Z,67.84
2016-08-14T00:41:40.104Z,67.9
2016-08-14T00:42:40.134Z,67.81
2016-08-14T00:43:40.160Z,67.9
2016-08-14T00:44:40.183Z,67.74
2016-08-14T00:45:40.925Z,67.81
2016-08-14T00:46:40.239Z,67.9
2016-08-14T00:47:40.264Z,67.9
2016-08-14T00:48:40.292Z,67.65
2016-08-14T00:49:40.317Z,67.94
2016-08-14T00:50:40.345Z,67.33
2016-08-14T00:51:40.374Z,67.71
2016-08-14T00:52:40.401Z,67.42
2016-08-14T00:53:40.426Z,67.81
2016-08-14T00:54:40.452Z,67.71
2016-08-14T00:55:41.191Z,67.71
2016-08-14T00:56:40.508Z,67.61
2016-08-14T00:57:40.531Z,68.1
2016-08-14T00:58:40.563Z,67.65
2016-08-14T00:59:40.587Z,67.81
2016-08-14T01:00:41.329Z,67.61
2016-08-14T01:01:40.643Z,67.71
2016-08-14T01:02:40.668Z,67.46
2016-08-14T01:03:40.706Z,67.42
2016-08-14T01:04:40.723Z,67.46
2016-08-14T01:05:41.459Z,67.33
2016-08-14T01:06:40.779Z,67.36
2016-08-14T01:07:40.803Z,67.9
2016-08-14T01:08:40.828Z,67.61
2016-08-14T01:09:40.854Z,67.61
2016-08-14T01:10:40.882Z,67.71
2016-08-14T01:11:40.908Z,68
2016-08-14T01:12:40.933Z,67.42
2016-08-14T01:13:40.967Z,67.9
2016-08-14T01:14:40.994Z,67.61
2016-08-14T01:15:41.731Z,67.9
2016-08-14T01:16:41.041Z,67.81
2016-08-14T01:17:41.068Z,68.1
2016-08-14T01:18:41.093Z,68.1
2016-08-14T01:19:41.120Z,68.29
2016-08-14T01:20:41.860Z,68.1
2016-08-14T01:21:41.177Z,68.19
2016-08-14T01:22:41.219Z,68.29
2016-08-14T01:23:41.237Z,67.81
2016-08-14T01:24:41.978Z,67.81
2016-08-14T01:25:41.288Z,67.9
2016-08-14T01:26:41.310Z,67.9
2016-08-14T01:27:41.337Z,67.81
2016-08-14T01:28:41.360Z,68.1
2016-08-14T01:29:41.386Z,68.1
2016-08-14T01:30:41.429Z,67.9
2016-08-14T01:31:41.447Z,68.1
2016-08-14T01:32:41.472Z,68.19
2016-08-14T01:33:41.496Z,68.19
2016-08-14T01:34:41.517Z,68.19
2016-08-14T01:35:41.546Z,68.19
2016-08-14T01:36:41.573Z,67.61
2016-08-14T01:37:41.601Z,67.71
2016-08-14T01:38:41.645Z,68
2016-08-14T01:39:42.363Z,67.9
2016-08-14T01:40:41.682Z,68.1
2016-08-14T01:41:41.703Z,68.1
2016-08-14T01:42:41.732Z,68
2016-08-14T01:43:41.759Z,68
2016-08-14T01:44:41.792Z,68.1
2016-08-14T01:45:41.812Z,68
2016-08-14T01:46:41.840Z,67.71
2016-08-14T01:47:41.874Z,68
2016-08-14T01:48:41.890Z,68.06
2016-08-14T01:49:41.919Z,68.1
2016-08-14T01:50:41.945Z,68.26
2016-08-14T01:51:42.680Z,68.64
2016-08-14T01:52:42.001Z,68.58
2016-08-14T01:53:42.023Z,68.35
2016-08-14T01:54:42.059Z,69.02
2016-08-14T01:55:42.091Z,68.26
2016-08-14T01:56:42.104Z,68.26
2016-08-14T01:57:42.127Z,68.93
2016-08-14T01:58:42.156Z,68.84
2016-08-14T01:59:42.184Z,69.02
2016-08-14T02:00:42.209Z,69.51
2016-08-14T02:01:42.235Z,69.02
2016-08-14T02:02:42.261Z,68.84
2016-08-14T02:03:42.307Z,69.31
2016-08-14T02:04:42.320Z,68.93
2016-08-14T02:05:42.343Z,69.02
2016-08-14T02:06:42.368Z,68.93
2016-08-14T02:07:43.101Z,69.02
2016-08-14T02:08:42.421Z,69.12
2016-08-14T02:09:42.450Z,69.02
2016-08-14T02:10:42.474Z,68.84
2016-08-14T02:11:43.209Z,69.02
2016-08-14T02:12:42.525Z,68.93
2016-08-14T02:13:43.261Z,68.93
2016-08-14T02:14:42.575Z,69.02
2016-08-14T02:15:43.314Z,69.51
2016-08-14T02:16:42.627Z,69.22
2016-08-14T02:17:42.654Z,68.84
2016-08-14T02:18:42.685Z,69.51
2016-08-14T02:19:42.706Z,69.02
2016-08-14T02:20:42.735Z,69.31
2016-08-14T02:21:42.760Z,69.02
2016-08-14T02:22:43.496Z,68.84
2016-08-14T02:23:42.813Z,68.93
2016-08-14T02:24:42.839Z,69.22
2016-08-14T02:25:42.867Z,68.84
2016-08-14T02:26:42.891Z,69.31
2016-08-14T02:27:42.918Z,69.02
2016-08-14T02:28:42.943Z,69.31
2016-08-14T02:29:42.967Z,69.02
2016-08-14T02:30:42.991Z,69.41
2016-08-14T02:31:43.023Z,69.22
2016-08-14T02:32:43.046Z,68.84
2016-08-14T02:33:43.074Z,69.02
2016-08-14T02:34:43.105Z,69.41
2016-08-14T02:35:43.127Z,69.51
2016-08-14T02:36:43.154Z,69.31
2016-08-14T02:37:43.177Z,69.22
2016-08-14T02:38:43.204Z,69.02
2016-08-14T02:39:43.232Z,69.02
2016-08-14T02:40:43.257Z,69.22
2016-08-14T02:41:43.366Z,69.22
2016-08-14T02:42:43.323Z,69.41
2016-08-14T02:43:43.335Z,69.12
2016-08-14T02:44:44.073Z,69.41
2016-08-14T02:45:44.097Z,69.02
2016-08-14T02:46:43.414Z,69.31
2016-08-14T02:47:43.451Z,69.12
2016-08-14T02:48:43.466Z,69.02
2016-08-14T02:49:43.492Z,68.84
2016-08-14T02:50:43.545Z,68.35
2016-08-14T02:51:43.550Z,68.35
2016-08-14T02:52:44.282Z,68.44
2016-08-14T02:53:44.323Z,68.54
2016-08-14T02:54:43.624Z,68.35
2016-08-14T02:55:43.649Z,68.74
2016-08-14T02:56:43.679Z,68.44
2016-08-14T02:57:43.703Z,68.64
2016-08-14T02:58:44.439Z,68.44
2016-08-14T02:59:43.769Z,68.54
2016-08-14T03:00:43.783Z,68.26
2016-08-14T03:01:43.807Z,68.64
2016-08-14T03:02:43.832Z,67.97
2016-08-14T03:03:43.858Z,67.97
2016-08-14T03:04:43.887Z,68.74
2016-08-14T03:05:44.619Z,68.64
2016-08-14T03:06:43.937Z,68.54
2016-08-14T03:07:43.984Z,68.64
2016-08-14T03:08:43.987Z,67.77
2016-08-14T03:09:44.014Z,68.35
2016-08-14T03:10:44.040Z,68.35
2016-08-14T03:11:44.068Z,68.74
2016-08-14T03:12:44.098Z,68.64
2016-08-14T03:13:44.122Z,68.64
2016-08-14T03:14:44.859Z,68.35
2016-08-14T03:15:44.174Z,68.54
2016-08-14T03:16:44.200Z,68.64
2016-08-14T03:17:44.223Z,68.64
2016-08-14T03:18:44.250Z,68.64
2016-08-14T03:19:44.274Z,68.54
2016-08-14T03:20:44.300Z,68.74
2016-08-14T03:21:44.328Z,68.41
2016-08-14T03:22:44.361Z,68.6
2016-08-14T03:23:44.380Z,68.6
2016-08-14T03:24:44.409Z,68.41
2016-08-14T03:25:44.438Z,68.6
2016-08-14T03:26:44.456Z,68.51
2016-08-14T03:27:45.203Z,68.6
2016-08-14T03:28:44.524Z,68.41
2016-08-14T03:29:44.540Z,68.64
2016-08-14T03:30:45.277Z,67.93
2016-08-14T03:31:44.588Z,68.32
2016-08-14T03:32:44.614Z,68.6
2016-08-14T03:33:44.641Z,68.8
2016-08-14T03:34:45.378Z,68.41
2016-08-14T03:35:44.694Z,68.26
2016-08-14T03:36:44.719Z,68.6
2016-08-14T03:37:44.753Z,68.32
2016-08-14T03:38:44.773Z,68.51
2016-08-14T03:39:44.799Z,68.6
2016-08-14T03:40:44.826Z,68.6
2016-08-14T03:41:44.850Z,68.13
2016-08-14T03:42:44.875Z,68.13
2016-08-14T03:43:44.900Z,68.6
2016-08-14T03:44:44.928Z,68.6
2016-08-14T03:45:44.967Z,68.51
2016-08-14T03:46:44.979Z,68.32
2016-08-14T03:47:45.007Z,68.22
2016-08-14T03:48:45.031Z,68.32
2016-08-14T03:49:45.060Z,68.51
2016-08-14T03:50:45.799Z,68.41
2016-08-14T03:51:45.109Z,68.51
2016-08-14T03:52:45.138Z,68.41
2016-08-14T03:53:45.182Z,69.09
2016-08-14T03:54:45.898Z,69.18
2016-08-14T03:55:45.210Z,69.28
2016-08-14T03:56:45.236Z,68.8
2016-08-14T03:57:45.266Z,68.8
2016-08-14T03:58:45.288Z,68.7
2016-08-14T03:59:45.318Z,68.32
2016-08-14T04:00:45.342Z,68.7
2016-08-14T04:01:45.367Z,69.47
2016-08-14T04:02:45.411Z,68.8
2016-08-14T04:03:45.421Z,68.8
2016-08-14T04:04:45.443Z,68.9
2016-08-14T04:05:45.471Z,68.99
2016-08-14T04:06:45.499Z,69.18
2016-08-14T04:07:45.522Z,68.9
2016-08-14T04:08:45.549Z,68.8
2016-08-14T04:09:45.586Z,68.9
2016-08-14T04:10:45.601Z,68.9
2016-08-14T04:11:45.625Z,69.38
2016-08-14T04:12:45.653Z,68.9
2016-08-14T04:13:45.677Z,69.57
2016-08-14T04:14:45.707Z,69.28
2016-08-14T04:15:45.729Z,69.18
2016-08-14T04:16:45.754Z,69.18
2016-08-14T04:17:46.499Z,69.09
2016-08-14T04:18:46.522Z,69.18
2016-08-14T04:19:45.832Z,68.9
2016-08-14T04:20:45.863Z,68.8
2016-08-14T04:21:45.891Z,68.99
2016-08-14T04:22:45.913Z,68.9
2016-08-14T04:23:46.654Z,69.47
2016-08-14T04:24:45.964Z,68.9
2016-08-14T04:25:45.992Z,68.9
2016-08-14T04:26:46.017Z,68.9
2016-08-14T04:27:46.039Z,69.47
2016-08-14T04:28:46.069Z,69.38
2016-08-14T04:29:46.089Z,68.9
2016-08-14T04:30:46.117Z,68.51
2016-08-14T04:31:46.859Z,68.8
2016-08-14T04:32:46.173Z,69.09
2016-08-14T04:33:46.210Z,68.41
2016-08-14T04:34:46.220Z,68.8
2016-08-14T04:35:46.247Z,68.6
2016-08-14T04:36:46.274Z,68.7
2016-08-14T04:37:46.295Z,68.41
2016-08-14T04:38:46.324Z,67.83
2016-08-14T04:39:46.350Z,68.03
2016-08-14T04:40:47.084Z,67.93
2016-08-14T04:41:46.404Z,68.06
2016-08-14T04:42:46.438Z,68.54
2016-08-14T04:43:46.455Z,68.44
2016-08-14T04:44:46.482Z,68.16
2016-08-14T04:45:46.508Z,67.77
2016-08-14T04:46:46.530Z,67.87
2016-08-14T04:47:46.558Z,67.58
2016-08-14T04:48:46.582Z,67.49
2016-08-14T04:49:46.608Z,67.68
2016-08-14T04:50:46.654Z,68.26
2016-08-14T04:51:46.659Z,68.16
2016-08-14T04:52:46.684Z,68.06
2016-08-14T04:53:46.712Z,67.68
2016-08-14T04:54:46.739Z,67.97
2016-08-14T04:55:46.765Z,67.39
2016-08-14T04:56:46.792Z,67.68
2016-08-14T04:57:46.818Z,67.93
2016-08-14T04:58:46.844Z,68.22
2016-08-14T04:59:46.869Z,68.03
2016-08-14T05:00:47.606Z,67.68
2016-08-14T05:01:46.920Z,68.13
2016-08-14T05:02:46.946Z,68.26
2016-08-14T05:03:46.972Z,68.16
2016-08-14T05:04:46.999Z,68.13
2016-08-14T05:05:47.024Z,68.35
2016-08-14T05:06:47.051Z,68.35
2016-08-14T05:07:47.076Z,68.44
2016-08-14T05:08:47.101Z,68.16
2016-08-14T05:09:47.839Z,67.77
2016-08-14T05:10:47.155Z,68.26
2016-08-14T05:11:47.179Z,67.87
2016-08-14T05:12:47.211Z,67.68
2016-08-14T05:13:47.232Z,67.77
2016-08-14T05:14:47.258Z,67.87
2016-08-14T05:15:47.287Z,68.26
2016-08-14T05:16:47.312Z,67.49
2016-08-14T05:17:47.338Z,67.58
2016-08-14T05:18:48.078Z,67.77
2016-08-14T05:19:47.391Z,67.58
2016-08-14T05:20:47.421Z,68.06
2016-08-14T05:21:47.445Z,68.06
2016-08-14T05:22:47.468Z,67.77
2016-08-14T05:23:47.494Z,67.68
2016-08-14T05:24:47.521Z,67.87
2016-08-14T05:25:47.545Z,67.58
2016-08-14T05:26:48.285Z,67.68
2016-08-14T05:27:47.602Z,67.39
2016-08-14T05:28:47.637Z,67.49
2016-08-14T05:29:47.650Z,67.1
2016-08-14T05:30:47.676Z,66.81
2016-08-14T05:31:47.703Z,67
2016-08-14T05:32:47.731Z,67.1
2016-08-14T05:33:47.755Z,66.62
2016-08-14T05:34:47.785Z,67.39
2016-08-14T05:35:47.811Z,67.19
2016-08-14T05:36:47.852Z,67.39
2016-08-14T05:37:47.864Z,67.39
2016-08-14T05:38:47.891Z,66.91
2016-08-14T05:39:47.912Z,66.81
2016-08-14T05:40:47.950Z,66.62
2016-08-14T05:41:47.964Z,67
2016-08-14T05:42:47.988Z,66.81
2016-08-14T05:43:48.023Z,67.03
2016-08-14T05:44:48.046Z,66.36
2016-08-14T05:45:48.079Z,66.17
2016-08-14T05:46:48.094Z,65.98
2016-08-14T05:47:48.124Z,65.98
2016-08-14T05:48:48.149Z,65.88
2016-08-14T05:49:48.177Z,65.59
2016-08-14T05:50:48.201Z,65.2
2016-08-14T05:51:48.226Z,65.11
2016-08-14T05:52:48.254Z,65.4
2016-08-14T05:53:48.297Z,64.92
2016-08-14T05:54:48.305Z,65.11
2016-08-14T05:55:48.333Z,64.82
2016-08-14T05:56:48.358Z,65.05
2016-08-14T05:57:48.386Z,65.14
2016-08-14T05:58:48.411Z,65.33
2016-08-14T05:59:48.440Z,65.14
2016-08-14T06:00:48.473Z,65.91
2016-08-14T06:01:48.491Z,65.24
2016-08-14T06:02:48.514Z,65.24
2016-08-14T06:03:48.547Z,65.33
2016-08-14T06:04:48.571Z,65.33
2016-08-14T06:05:48.597Z,65.24
2016-08-14T06:06:48.624Z,65.24
2016-08-14T06:07:48.653Z,65.53
2016-08-14T06:08:48.683Z,65.53
2016-08-14T06:09:48.705Z,65.14
2016-08-14T06:10:48.738Z,65.14
2016-08-14T06:11:48.759Z,65.14
2016-08-14T06:12:48.787Z,65.33
2016-08-14T06:13:48.811Z,65.24
2016-08-14T06:14:48.840Z,65.43
2016-08-14T06:15:48.865Z,65.53
2016-08-14T06:16:49.802Z,65.95
2016-08-14T06:17:48.919Z,66.01
2016-08-14T06:18:48.945Z,64.98
2016-08-14T06:19:48.973Z,65.81
2016-08-14T06:20:49.000Z,65.85
2016-08-14T06:21:49.025Z,65.37
2016-08-14T06:22:49.054Z,65.85
2016-08-14T06:23:49.081Z,65.85
2016-08-14T06:24:49.110Z,65.27
2016-08-14T06:25:49.130Z,65.08
2016-08-14T06:26:49.163Z,65.59
2016-08-14T06:27:49.185Z,65.56
2016-08-14T06:28:49.213Z,65.5
2016-08-14T06:29:49.240Z,65.5
2016-08-14T06:30:49.266Z,65.59
2016-08-14T06:31:49.302Z,64.43
2016-08-14T06:32:49.324Z,64.63
2016-08-14T06:33:49.348Z,64.63
2016-08-14T06:34:49.375Z,64.15
2016-08-14T06:35:49.403Z,64.05
2016-08-14T06:36:49.434Z,63.7
2016-08-14T06:37:49.456Z,63.98
2016-08-14T06:38:49.483Z,63.98
2016-08-14T06:39:49.513Z,64.08
2016-08-14T06:40:49.545Z,62.92
2016-08-14T06:41:49.564Z,62.25
2016-08-14T06:42:49.593Z,63.02
2016-08-14T06:43:49.619Z,62.63
2016-08-14T06:44:49.667Z,62.34
2016-08-14T06:45:49.678Z,61.86
2016-08-14T06:46:49.707Z,62.18
2016-08-14T06:47:49.744Z,62.57
2016-08-14T06:48:49.761Z,61.31
2016-08-14T06:49:49.789Z,61.02
2016-08-14T06:50:49.814Z,60.93
2016-08-14T06:51:49.847Z,61.51
2016-08-14T06:52:50.018Z,60.25
2016-08-14T06:53:49.896Z,60.64
2016-08-14T06:54:49.928Z,60.93
2016-08-14T06:55:49.957Z,60.06
2016-08-14T06:56:49.983Z,60.35
2016-08-14T06:57:50.010Z,59.8
2016-08-14T06:59:50.771Z,59.99
2016-08-14T07:00:50.091Z,59.22
2016-08-14T07:01:50.118Z,58.15
2016-08-14T07:02:50.145Z,57.77
2016-08-14T07:03:50.175Z,58.73
2016-08-14T07:04:50.202Z,59.02
2016-08-14T07:05:50.251Z,58.28
2016-08-14T07:06:50.970Z,59.05
2016-08-14T07:07:50.286Z,58.95
2016-08-14T07:08:50.314Z,58.37
2016-08-14T07:09:50.344Z,58.47
2016-08-14T07:10:51.079Z,58.37
2016-08-14T07:11:50.400Z,58.37
2016-08-14T07:12:50.431Z,57.99
2016-08-14T07:13:50.469Z,57.99
2016-08-14T07:14:51.194Z,57.44
2016-08-14T07:15:50.512Z,57.92
2016-08-14T07:16:50.539Z,58.31
2016-08-14T07:17:51.291Z,57.15
2016-08-14T07:18:50.598Z,57.24
2016-08-14T07:19:50.623Z,56.95
2016-08-14T07:20:50.679Z,57.44
2016-08-14T07:21:51.408Z,56.86
2016-08-14T07:22:50.716Z,56.76
2016-08-14T07:23:50.763Z,56.6
2016-08-14T07:24:51.484Z,56.57
2016-08-14T07:25:50.804Z,55.24
2016-08-14T07:26:50.824Z,55.92
2016-08-14T07:27:50.852Z,56.7
2016-08-14T07:28:50.892Z,56.6
2016-08-14T07:29:50.917Z,56.79
2016-08-14T07:30:50.939Z,56.6
2016-08-14T07:31:50.967Z,56.5
2016-08-14T07:32:50.994Z,56.43
2016-08-14T07:33:51.735Z,55.24
2016-08-14T07:34:51.054Z,54.59
2016-08-14T07:35:51.081Z,55.07
2016-08-14T07:36:51.110Z,56.24
2016-08-14T07:37:51.139Z,56.04
2016-08-14T07:38:51.168Z,56.14
2016-08-14T07:39:51.196Z,55.17
2016-08-14T07:40:51.224Z,55.07
2016-08-14T07:41:51.254Z,54.98
2016-08-14T07:42:51.286Z,55.36
2016-08-14T07:43:51.313Z,55.3
2016-08-14T07:44:51.342Z,55.2
2016-08-14T07:45:51.369Z,54.81
2016-08-14T07:46:51.399Z,54.13
2016-08-14T07:47:51.427Z,54.71
2016-08-14T07:48:51.456Z,54.71
2016-08-14T07:49:51.486Z,53.94
2016-08-14T07:50:51.512Z,53.65
2016-08-14T07:51:51.542Z,52.97
2016-08-14T07:52:51.572Z,52.49
2016-08-14T07:53:51.600Z,52.39
2016-08-14T07:54:51.646Z,52.8
2016-08-14T07:55:51.660Z,52.32
2016-08-14T07:56:51.690Z,52.71
2016-08-14T07:57:51.717Z,51.45
2016-08-14T07:58:51.748Z,52.22
2016-08-14T07:59:51.775Z,51.45
2016-08-14T08:00:51.804Z,51.74
2016-08-14T08:01:51.853Z,51.74
2016-08-14T08:02:51.870Z,51.09
2016-08-14T08:03:51.900Z,51.09
2016-08-14T08:04:51.935Z,51.76
2016-08-14T08:05:51.950Z,51.47
2016-08-14T08:06:51.980Z,50.6
2016-08-14T08:07:52.016Z,51.21
2016-08-14T08:08:52.750Z,50.72
2016-08-14T08:09:52.072Z,50.04
2016-08-14T08:10:52.101Z,48.88
2016-08-14T08:11:52.134Z,49
2016-08-14T08:12:52.161Z,48.88
2016-08-14T08:13:52.189Z,49.29
2016-08-14T08:14:52.218Z,49
2016-08-14T08:15:52.250Z,48.22
2016-08-14T08:16:52.279Z,48.03
2016-08-14T08:17:53.018Z,48.78
2016-08-14T08:18:53.050Z,49.37
2016-08-14T08:19:52.376Z,49.66
2016-08-14T08:20:52.396Z,49.07
2016-08-14T08:21:52.427Z,49.07
2016-08-14T08:22:52.462Z,48.71
2016-08-14T08:23:52.487Z,48.49
2016-08-14T08:24:52.518Z,48.8
2016-08-14T08:25:52.564Z,48.22
2016-08-14T08:26:52.587Z,48.9
2016-08-14T08:27:52.608Z,49.19
2016-08-14T08:28:52.638Z,48.61
2016-08-14T08:29:52.679Z,48.32
2016-08-14T08:30:52.700Z,48.13
2016-08-14T08:31:52.730Z,47.83
2016-08-14T08:32:52.757Z,47.83
2016-08-14T08:33:52.800Z,48.13
2016-08-14T08:34:52.823Z,48.9
2016-08-14T08:35:52.847Z,49
2016-08-14T08:36:52.879Z,49.29
2016-08-14T08:37:52.910Z,49.29
2016-08-14T08:38:52.935Z,49.51
2016-08-14T08:39:52.967Z,48.73
2016-08-14T08:40:52.998Z,48.25
2016-08-14T08:41:53.026Z,48.73
2016-08-14T08:42:53.058Z,48.83
2016-08-14T08:43:53.100Z,49.12
2016-08-14T08:44:53.118Z,48.44
2016-08-14T08:45:53.147Z,48.73
2016-08-14T08:46:53.890Z,45.92
2016-08-14T08:47:53.208Z,45.82
2016-08-14T08:48:53.237Z,47.08
2016-08-14T08:49:53.268Z,47.28
2016-08-14T08:50:54.016Z,46.5
2016-08-14T08:51:53.329Z,46.98
2016-08-14T08:52:54.068Z,48.15
2016-08-14T08:53:53.390Z,47.38
2016-08-14T08:54:53.419Z,46.41
2016-08-14T08:55:53.451Z,46.79
2016-08-14T08:56:53.485Z,48.35
2016-08-14T08:57:53.519Z,47.57
2016-08-14T08:58:53.541Z,47.08
2016-08-14T08:59:53.592Z,46.72
2016-08-14T09:00:53.601Z,46.33
2016-08-14T09:01:54.343Z,47.4
2016-08-14T09:02:53.663Z,47.88
2016-08-14T09:03:54.404Z,47.11
2016-08-14T09:04:54.435Z,46.04
2016-08-14T09:05:53.754Z,46.74
2016-08-14T09:06:54.511Z,46.06
2016-08-14T09:07:54.525Z,44.89
2016-08-14T09:08:54.556Z,44.6
2016-08-14T09:09:53.875Z,45.97
2016-08-14T09:10:53.908Z,47.13
2016-08-14T09:11:53.939Z,46.64
2016-08-14T09:12:53.969Z,48.1
2016-08-14T09:13:54.001Z,47.03
2016-08-14T09:14:54.740Z,46.96
2016-08-14T09:15:54.060Z,45.77
2016-08-14T09:16:54.122Z,44.21
2016-08-14T09:17:54.123Z,45.69
2016-08-14T09:18:54.865Z,45.98
2016-08-14T09:19:54.185Z,45.6
2016-08-14T09:20:54.925Z,45.89
2016-08-14T09:21:54.958Z,45.6
2016-08-14T09:22:54.285Z,45.01
2016-08-14T09:23:54.346Z,45.6
2016-08-14T09:24:54.341Z,44.92
2016-08-14T09:25:55.084Z,44.14
2016-08-14T09:26:54.402Z,44.82
2016-08-14T09:27:54.435Z,46.86
2016-08-14T09:28:54.464Z,46.77
2016-08-14T09:29:54.495Z,46.18
2016-08-14T09:30:54.530Z,46.01
2016-08-14T09:31:54.565Z,45.72
2016-08-14T09:32:54.590Z,46.59
2016-08-14T09:33:54.621Z,46.11
2016-08-14T09:34:54.653Z,45.62
2016-08-14T09:35:54.686Z,45.62
2016-08-14T09:36:54.715Z,43.58
2016-08-14T09:37:54.745Z,43.58
2016-08-14T09:38:54.778Z,42.99
2016-08-14T09:39:54.825Z,44.45
2016-08-14T09:40:54.846Z,45.91
2016-08-14T09:41:54.872Z,46.2
2016-08-14T09:42:54.903Z,45.04
2016-08-14T09:43:54.935Z,45.14
2016-08-14T09:44:55.675Z,45.81
2016-08-14T09:45:54.997Z,44.96
2016-08-14T09:46:55.744Z,44.28
2016-08-14T09:47:55.064Z,44.48
2016-08-14T09:48:55.100Z,44.38
2016-08-14T09:49:55.207Z,43.99
2016-08-14T09:50:55.196Z,44.67
2016-08-14T09:51:55.186Z,43.99
2016-08-14T09:52:55.366Z,44.38
2016-08-14T09:53:55.258Z,44.48
2016-08-14T09:54:56.003Z,43.3
2016-08-14T09:55:55.326Z,44.18
2016-08-14T09:56:55.358Z,43.7
2016-08-14T09:57:55.378Z,42.82
2016-08-14T09:58:55.407Z,41.75
2016-08-14T09:59:55.441Z,42.33
2016-08-14T10:00:55.472Z,41.94
2016-08-14T10:01:55.507Z,42.25
2016-08-14T10:02:55.535Z,42.84
2016-08-14T10:03:55.569Z,44.49
2016-08-14T10:04:55.646Z,42.84
2016-08-14T10:05:55.651Z,43.52
2016-08-14T10:06:55.678Z,43.62
2016-08-14T10:07:55.706Z,42.84
2016-08-14T10:08:55.744Z,43.04
2016-08-14T10:09:55.760Z,43.23
2016-08-14T10:10:55.789Z,41.77
2016-08-14T10:11:55.822Z,43.43
2016-08-14T10:12:55.862Z,41.86
2016-08-14T10:13:55.894Z,42.65
2016-08-14T10:14:55.944Z,41.96
2016-08-14T10:15:55.947Z,41.57
2016-08-14T10:16:55.977Z,42.55
2016-08-14T10:17:56.722Z,43.23
2016-08-14T10:18:56.046Z,42.57
2016-08-14T10:19:56.870Z,42.38
2016-08-14T10:20:56.106Z,42.76
2016-08-14T10:21:56.864Z,42.18
2016-08-14T10:22:56.174Z,42.38
2016-08-14T10:23:56.206Z,41.89
2016-08-14T10:24:56.231Z,41.69
2016-08-14T10:25:56.272Z,41.5
2016-08-14T10:26:56.299Z,42.08
2016-08-14T10:27:56.329Z,43.15
2016-08-14T10:28:57.086Z,42.4
2016-08-14T10:29:56.395Z,41.52
2016-08-14T10:30:57.151Z,38.49
2016-08-14T10:31:56.458Z,39.16
2016-08-14T10:32:56.491Z,40.23
2016-08-14T10:33:56.537Z,41.3
2016-08-14T10:34:56.555Z,41.91
2016-08-14T10:35:56.588Z,41.03
2016-08-14T10:36:56.621Z,41.32
2016-08-14T10:37:56.651Z,40.35
2016-08-14T10:38:56.683Z,40.45
2016-08-14T10:39:56.721Z,41.61
2016-08-14T10:40:56.750Z,41.22
2016-08-14T10:41:56.780Z,41.03
2016-08-14T10:42:56.816Z,41.22
2016-08-14T10:43:56.846Z,41.52
2016-08-14T10:44:56.878Z,40.45
2016-08-14T10:45:57.017Z,40.25
2016-08-14T10:46:56.961Z,39.96
2016-08-14T10:47:57.692Z,40.73
2016-08-14T10:48:57.009Z,40.83
2016-08-14T10:49:57.040Z,41.42
2016-08-14T10:50:57.076Z,40.55
2016-08-14T10:51:57.108Z,40.08
2016-08-14T10:52:57.139Z,37.93
2016-08-14T10:53:57.172Z,37.25
2016-08-14T10:54:57.202Z,38.02
2016-08-14T10:55:57.242Z,39.1
2016-08-14T10:56:57.272Z,39.98
2016-08-14T10:57:57.301Z,39.59
2016-08-14T10:58:58.049Z,40.56
2016-08-14T10:59:57.366Z,40.17
2016-08-14T11:00:57.396Z,40.76
2016-08-14T11:01:57.431Z,40.17
2016-08-14T11:02:57.485Z,39.59
2016-08-14T11:03:57.609Z,38.61
2016-08-14T11:04:57.552Z,39.59
2016-08-14T11:05:57.565Z,40.47
2016-08-14T11:06:57.592Z,37.93
2016-08-14T11:07:58.340Z,39.18
2016-08-14T11:08:57.662Z,40.83
2016-08-14T11:09:57.692Z,40.56
2016-08-14T11:10:58.436Z,40.95
2016-08-14T11:11:57.760Z,39
2016-08-14T11:12:57.787Z,40.66
2016-08-14T11:13:57.822Z,41.15
2016-08-14T11:14:57.856Z,41.63
2016-08-14T11:15:57.885Z,40.47
2016-08-14T11:16:57.924Z,39.49
2016-08-14T11:17:58.701Z,40.08
2016-08-14T11:18:57.986Z,38.63
2016-08-14T11:19:58.037Z,38.92
2016-08-14T11:20:58.056Z,39.41
2016-08-14T11:21:58.081Z,40.48
2016-08-14T11:22:58.113Z,40.48
2016-08-14T11:23:58.861Z,39.31
2016-08-14T11:24:58.182Z,37.95
2016-08-14T11:25:58.215Z,37.85
2016-08-14T11:26:58.248Z,38.51
2016-08-14T11:27:58.278Z,38.61
2016-08-14T11:28:59.024Z,39.1
2016-08-14T11:29:58.357Z,39
2016-08-14T11:30:58.378Z,38.9
2016-08-14T11:31:58.411Z,39.02
2016-08-14T11:32:58.444Z,38.81
2016-08-14T11:33:59.185Z,39.22
2016-08-14T11:34:58.508Z,40.78
2016-08-14T11:35:58.542Z,41.56
2016-08-14T11:36:58.583Z,41.56
2016-08-14T11:37:58.607Z,40.48
2016-08-14T11:38:58.640Z,40.68
2016-08-14T11:39:58.672Z,39.8
2016-08-14T11:40:59.419Z,39.31
2016-08-14T11:41:58.745Z,40.68
2016-08-14T11:42:58.777Z,40.78
2016-08-14T11:43:58.808Z,38.43
2016-08-14T11:44:58.843Z,40.29
2016-08-14T11:45:58.868Z,39.22
2016-08-14T11:46:58.908Z,37.17
2016-08-14T11:47:58.933Z,38.04
2016-08-14T11:48:59.675Z,38.81
2016-08-14T11:49:58.999Z,38.12
2016-08-14T11:50:59.031Z,38.71
2016-08-14T11:51:59.780Z,38.98
2016-08-14T11:52:59.096Z,40.95
2016-08-14T11:53:59.866Z,42.32
2016-08-14T11:54:59.168Z,40.86
2016-08-14T11:55:59.912Z,38.71
2016-08-14T11:56:59.228Z,39.78
2016-08-14T11:57:59.261Z,40.39
2016-08-14T11:58:59.292Z,40.09
2016-08-14T11:59:59.326Z,40.29
2016-08-14T12:00:59.360Z,40.88
2016-08-14T12:01:59.389Z,41.56
2016-08-14T12:02:59.438Z,40.78
2016-08-14T12:03:59.458Z,40.5
2016-08-14T12:04:59.489Z,39.82
2016-08-14T12:05:59.523Z,38.55
2016-08-14T12:06:59.554Z,38.16
2016-08-14T12:08:00.299Z,38.35
2016-08-14T12:09:00.350Z,38.94
2016-08-14T12:09:59.660Z,37.96
2016-08-14T12:10:59.688Z,39.04
2016-08-14T12:11:59.720Z,38.94
2016-08-14T12:12:59.758Z,38.48
2016-08-14T12:13:59.785Z,38.26
2016-08-14T12:14:59.818Z,37.57
2016-08-14T12:16:00.564Z,37.09
2016-08-14T12:16:59.887Z,37.87
2016-08-14T12:18:00.627Z,38.35
2016-08-14T12:18:59.954Z,38.84
2016-08-14T12:19:59.988Z,38.45
2016-08-14T12:21:00.020Z,39.53
2016-08-14T12:22:00.049Z,39.43
2016-08-14T12:23:00.792Z,38.65
2016-08-14T12:24:00.114Z,39.61
2016-08-14T12:25:00.149Z,38.92
2016-08-14T12:26:00.197Z,39.41
2016-08-14T12:27:00.229Z,39.02
2016-08-14T12:28:00.957Z,38.63
2016-08-14T12:29:00.276Z,39.7
2016-08-14T12:30:00.318Z,40
2016-08-14T12:31:00.344Z,39.88
2016-08-14T12:32:01.086Z,39
2016-08-14T12:33:00.408Z,39.29
2016-08-14T12:34:00.442Z,40.37
2016-08-14T12:35:00.477Z,40.09
2016-08-14T12:36:00.504Z,40.66
2016-08-14T12:37:00.549Z,40.37
2016-08-14T12:38:00.573Z,40.64
2016-08-14T12:39:00.607Z,40.73
2016-08-14T12:40:00.643Z,41.13
2016-08-14T12:41:00.672Z,40.93
2016-08-14T12:42:01.418Z,40.73
2016-08-14T12:43:01.463Z,41.42
2016-08-14T12:44:00.776Z,41.52
2016-08-14T12:45:00.801Z,41.79
2016-08-14T12:46:00.835Z,41.42
2016-08-14T12:47:00.865Z,39.96
2016-08-14T12:48:00.899Z,39.37
2016-08-14T12:49:00.930Z,39.57
2016-08-14T12:50:01.679Z,41.13
2016-08-14T12:51:01.714Z,41.54
2016-08-14T12:52:01.031Z,42.41
2016-08-14T12:53:01.060Z,41.15
2016-08-14T12:54:01.096Z,40.08
2016-08-14T12:55:01.125Z,40.58
2016-08-14T12:56:01.163Z,41.83
2016-08-14T12:57:01.190Z,42.02
2016-08-14T12:58:01.222Z,42.05
2016-08-14T12:59:01.256Z,41.07